This is the latest recevied weather packets stored in our database for station/object OK2ILA-10. If no packets are shown the sender has not sent any weather packets the latest 10 day(s).
| Time | Temp. | Humidity | Pressure | Rain* | Wind** | Luminosity | Snow |
|---|---|---|---|---|---|---|---|
| 1777706199 | 23.89° C | 41% | 1026.4 hPa | - | - | - | - |
| 1777706195 | 23.89° C | 41% | 1026.4 hPa | - | - | - | - |
| 1777705599 | 24.44° C | 41% | 1026.3 hPa | - | - | - | - |
| 1777705595 | 24.44° C | 41% | 1026.3 hPa | - | - | - | - |
| 1777704999 | 23.89° C | 42% | 1026.4 hPa | - | - | - | - |
| 1777704994 | 23.89° C | 42% | 1026.4 hPa | - | - | - | - |
| 1777704394 | 22.78° C | 44% | 1026.4 hPa | - | - | - | - |
| 1777703798 | 18.33° C | 51% | 1026.4 hPa | - | - | - | - |
| 1777703794 | 18.33° C | 51% | 1026.4 hPa | - | - | - | - |
| 1777703198 | 15.56° C | 56% | 1026.3 hPa | - | - | - | - |
| 1777703194 | 15.56° C | 56% | 1026.3 hPa | - | - | - | - |
| 1777702598 | 14.44° C | 57% | 1026.3 hPa | - | - | - | - |
| 1777702593 | 14.44° C | 57% | 1026.3 hPa | - | - | - | - |
| 1777701997 | 13.33° C | 57% | 1026.3 hPa | - | - | - | - |
| 1777701993 | 13.33° C | 57% | 1026.3 hPa | - | - | - | - |
| 1777701397 | 12.78° C | 59% | 1026.3 hPa | - | - | - | - |
| 1777701393 | 12.78° C | 59% | 1026.3 hPa | - | - | - | - |
| 1777700797 | 12.22° C | 60% | 1026.3 hPa | - | - | - | - |
| 1777700793 | 12.22° C | 60% | 1026.3 hPa | - | - | - | - |
| 1777700197 | 12.78° C | 59% | 1026.2 hPa | - | - | - | - |
| 1777700193 | 12.78° C | 59% | 1026.2 hPa | - | - | - | - |
| 1777699596 | 12.78° C | 59% | 1026.3 hPa | - | - | - | - |
| 1777699592 | 12.78° C | 59% | 1026.3 hPa | - | - | - | - |
| 1777698996 | 12.78° C | 58% | 1026.3 hPa | - | - | - | - |
| 1777698992 | 12.78° C | 58% | 1026.3 hPa | - | - | - | - |
* Rain since midnight (hover to see other rain measurements)
** Current wind speed in m/s (hover to see current wind gust speed)